sensor_id;sensor_type;location;lat;lon;timestamp;P1;durP1;ratioP1;P2;durP2;ratioP2
50056;SDS011;36875;49.468;11.200;2023-07-24T00:02:24;5.63;;;2.95;;
50056;SDS011;36875;49.468;11.200;2023-07-24T00:04:50;4.15;;;2.67;;
50056;SDS011;36875;49.468;11.200;2023-07-24T00:07:15;5.30;;;3.15;;
50056;SDS011;36875;49.468;11.200;2023-07-24T00:09:41;6.03;;;3.10;;
50056;SDS011;36875;49.468;11.200;2023-07-24T00:12:06;5.35;;;2.90;;
50056;SDS011;36875;49.468;11.200;2023-07-24T00:14:32;4.90;;;3.03;;
50056;SDS011;36875;49.468;11.200;2023-07-24T00:17:02;4.20;;;2.90;;
50056;SDS011;36875;49.468;11.200;2023-07-24T00:19:28;6.95;;;3.17;;
50056;SDS011;36875;49.468;11.200;2023-07-24T00:21:53;5.57;;;3.03;;
50056;SDS011;36875;49.468;11.200;2023-07-24T00:24:19;5.10;;;3.00;;
50056;SDS011;36875;49.468;11.200;2023-07-24T00:26:44;5.70;;;3.13;;
50056;SDS011;36875;49.468;11.200;2023-07-24T00:29:10;5.05;;;2.88;;
50056;SDS011;36875;49.468;11.200;2023-07-24T00:31:35;5.70;;;3.17;;
50056;SDS011;36875;49.468;11.200;2023-07-24T00:34:02;5.18;;;3.20;;
50056;SDS011;36875;49.468;11.200;2023-07-24T00:36:27;4.93;;;2.90;;
50056;SDS011;36875;49.468;11.200;2023-07-24T00:38:53;4.63;;;2.65;;
50056;SDS011;36875;49.468;11.200;2023-07-24T00:41:18;4.32;;;3.25;;
50056;SDS011;36875;49.468;11.200;2023-07-24T00:43:44;5.53;;;3.35;;
50056;SDS011;36875;49.468;11.200;2023-07-24T00:46:10;5.88;;;3.22;;
50056;SDS011;36875;49.468;11.200;2023-07-24T00:48:36;5.03;;;2.92;;
50056;SDS011;36875;49.468;11.200;2023-07-24T00:51:03;4.88;;;3.10;;
50056;SDS011;36875;49.468;11.200;2023-07-24T00:53:30;4.78;;;2.80;;
50056;SDS011;36875;49.468;11.200;2023-07-24T00:55:56;4.88;;;2.95;;
50056;SDS011;36875;49.468;11.200;2023-07-24T00:58:21;5.15;;;2.88;;
50056;SDS011;36875;49.468;11.200;2023-07-24T01:00:47;5.60;;;3.08;;
50056;SDS011;36875;49.468;11.200;2023-07-24T01:03:13;6.20;;;3.03;;
50056;SDS011;36875;49.468;11.200;2023-07-24T01:05:39;5.15;;;2.92;;
50056;SDS011;36875;49.468;11.200;2023-07-24T01:08:07;5.55;;;2.80;;
50056;SDS011;36875;49.468;11.200;2023-07-24T01:10:33;4.25;;;2.53;;
50056;SDS011;36875;49.468;11.200;2023-07-24T01:12:59;5.20;;;2.83;;
50056;SDS011;36875;49.468;11.200;2023-07-24T01:15:29;4.68;;;2.90;;
50056;SDS011;36875;49.468;11.200;2023-07-24T01:17:59;5.28;;;2.95;;
50056;SDS011;36875;49.468;11.200;2023-07-24T01:20:26;5.47;;;2.80;;
50056;SDS011;36875;49.468;11.200;2023-07-24T01:22:57;7.45;;;3.30;;
50056;SDS011;36875;49.468;11.200;2023-07-24T01:25:35;5.88;;;3.30;;
50056;SDS011;36875;49.468;11.200;2023-07-24T01:28:07;5.70;;;3.05;;
50056;SDS011;36875;49.468;11.200;2023-07-24T01:30:33;4.78;;;2.72;;
50056;SDS011;36875;49.468;11.200;2023-07-24T01:32:58;6.32;;;3.20;;
50056;SDS011;36875;49.468;11.200;2023-07-24T01:35:24;4.97;;;2.95;;
50056;SDS011;36875;49.468;11.200;2023-07-24T01:37:51;5.47;;;3.20;;
50056;SDS011;36875;49.468;11.200;2023-07-24T01:40:17;6.65;;;3.10;;
50056;SDS011;36875;49.468;11.200;2023-07-24T01:42:44;5.75;;;3.33;;
50056;SDS011;36875;49.468;11.200;2023-07-24T01:45:11;5.03;;;3.15;;
50056;SDS011;36875;49.468;11.200;2023-07-24T01:47:37;5.78;;;3.70;;
50056;SDS011;36875;49.468;11.200;2023-07-24T01:50:03;5.93;;;3.65;;
50056;SDS011;36875;49.468;11.200;2023-07-24T01:52:29;5.57;;;3.20;;
50056;SDS011;36875;49.468;11.200;2023-07-24T01:54:54;5.30;;;3.08;;
50056;SDS011;36875;49.468;11.200;2023-07-24T01:57:20;5.22;;;3.47;;
50056;SDS011;36875;49.468;11.200;2023-07-24T01:59:45;5.80;;;3.50;;
50056;SDS011;36875;49.468;11.200;2023-07-24T02:02:12;5.20;;;3.30;;
50056;SDS011;36875;49.468;11.200;2023-07-24T02:04:38;5.60;;;3.38;;
50056;SDS011;36875;49.468;11.200;2023-07-24T02:07:03;5.78;;;3.60;;
50056;SDS011;36875;49.468;11.200;2023-07-24T02:09:29;5.35;;;3.38;;
50056;SDS011;36875;49.468;11.200;2023-07-24T02:11:55;6.40;;;3.75;;
50056;SDS011;36875;49.468;11.200;2023-07-24T02:14:20;6.28;;;3.70;;
50056;SDS011;36875;49.468;11.200;2023-07-24T02:16:46;6.00;;;3.33;;
50056;SDS011;36875;49.468;11.200;2023-07-24T02:19:13;5.65;;;3.40;;
50056;SDS011;36875;49.468;11.200;2023-07-24T02:21:38;6.15;;;3.60;;
50056;SDS011;36875;49.468;11.200;2023-07-24T02:24:05;5.75;;;3.40;;
50056;SDS011;36875;49.468;11.200;2023-07-24T02:26:31;6.15;;;3.70;;
50056;SDS011;36875;49.468;11.200;2023-07-24T02:28:56;6.22;;;3.58;;
50056;SDS011;36875;49.468;11.200;2023-07-24T02:31:22;5.57;;;3.35;;
50056;SDS011;36875;49.468;11.200;2023-07-24T02:33:47;5.90;;;3.17;;
50056;SDS011;36875;49.468;11.200;2023-07-24T02:36:16;7.43;;;3.10;;
50056;SDS011;36875;49.468;11.200;2023-07-24T02:38:42;5.78;;;3.10;;
50056;SDS011;36875;49.468;11.200;2023-07-24T02:41:07;7.53;;;3.58;;
50056;SDS011;36875;49.468;11.200;2023-07-24T02:43:33;5.07;;;3.28;;
50056;SDS011;36875;49.468;11.200;2023-07-24T02:46:00;6.07;;;3.53;;
50056;SDS011;36875;49.468;11.200;2023-07-24T02:48:26;6.05;;;3.50;;
50056;SDS011;36875;49.468;11.200;2023-07-24T02:50:52;5.28;;;4.00;;
50056;SDS011;36875;49.468;11.200;2023-07-24T02:53:18;6.30;;;3.75;;
50056;SDS011;36875;49.468;11.200;2023-07-24T02:55:45;6.28;;;3.50;;
50056;SDS011;36875;49.468;11.200;2023-07-24T02:58:10;5.55;;;3.17;;
50056;SDS011;36875;49.468;11.200;2023-07-24T03:00:37;7.38;;;3.72;;
50056;SDS011;36875;49.468;11.200;2023-07-24T03:03:02;5.68;;;3.33;;
50056;SDS011;36875;49.468;11.200;2023-07-24T03:05:28;4.70;;;3.05;;
50056;SDS011;36875;49.468;11.200;2023-07-24T03:07:54;6.88;;;3.63;;
50056;SDS011;36875;49.468;11.200;2023-07-24T03:10:21;5.38;;;3.50;;
50056;SDS011;36875;49.468;11.200;2023-07-24T03:12:47;6.93;;;3.88;;
50056;SDS011;36875;49.468;11.200;2023-07-24T03:15:12;5.93;;;3.40;;
50056;SDS011;36875;49.468;11.200;2023-07-24T03:17:38;6.63;;;3.65;;
50056;SDS011;36875;49.468;11.200;2023-07-24T03:20:14;5.63;;;3.35;;
50056;SDS011;36875;49.468;11.200;2023-07-24T03:22:41;6.38;;;3.45;;
50056;SDS011;36875;49.468;11.200;2023-07-24T03:25:07;5.97;;;3.72;;
50056;SDS011;36875;49.468;11.200;2023-07-24T03:27:34;5.05;;;3.15;;
50056;SDS011;36875;49.468;11.200;2023-07-24T03:30:00;5.90;;;3.15;;
50056;SDS011;36875;49.468;11.200;2023-07-24T03:32:25;6.25;;;3.70;;
50056;SDS011;36875;49.468;11.200;2023-07-24T03:34:51;6.00;;;3.50;;
50056;SDS011;36875;49.468;11.200;2023-07-24T03:37:17;7.05;;;3.45;;
50056;SDS011;36875;49.468;11.200;2023-07-24T03:39:42;7.40;;;3.85;;
50056;SDS011;36875;49.468;11.200;2023-07-24T03:42:09;7.70;;;3.80;;
50056;SDS011;36875;49.468;11.200;2023-07-24T03:44:36;6.95;;;3.40;;
50056;SDS011;36875;49.468;11.200;2023-07-24T03:47:01;6.82;;;3.60;;
50056;SDS011;36875;49.468;11.200;2023-07-24T03:49:30;7.30;;;3.70;;
50056;SDS011;36875;49.468;11.200;2023-07-24T03:51:55;6.32;;;3.90;;
50056;SDS011;36875;49.468;11.200;2023-07-24T03:54:21;6.18;;;3.45;;
50056;SDS011;36875;49.468;11.200;2023-07-24T03:56:46;5.57;;;3.42;;
50056;SDS011;36875;49.468;11.200;2023-07-24T03:59:12;6.65;;;3.80;;
50056;SDS011;36875;49.468;11.200;2023-07-24T04:01:38;6.25;;;3.50;;
50056;SDS011;36875;49.468;11.200;2023-07-24T04:04:04;5.95;;;3.33;;
50056;SDS011;36875;49.468;11.200;2023-07-24T04:06:29;6.80;;;3.88;;
50056;SDS011;36875;49.468;11.200;2023-07-24T04:08:55;7.55;;;3.75;;
50056;SDS011;36875;49.468;11.200;2023-07-24T04:11:20;5.97;;;3.67;;
50056;SDS011;36875;49.468;11.200;2023-07-24T04:13:46;6.55;;;4.10;;
50056;SDS011;36875;49.468;11.200;2023-07-24T04:16:11;5.72;;;3.60;;
50056;SDS011;36875;49.468;11.200;2023-07-24T04:18:38;5.30;;;3.38;;
50056;SDS011;36875;49.468;11.200;2023-07-24T04:21:03;5.38;;;3.50;;
50056;SDS011;36875;49.468;11.200;2023-07-24T04:23:29;6.28;;;3.70;;
50056;SDS011;36875;49.468;11.200;2023-07-24T04:25:54;6.57;;;3.83;;
50056;SDS011;36875;49.468;11.200;2023-07-24T04:28:20;6.28;;;3.95;;
50056;SDS011;36875;49.468;11.200;2023-07-24T04:30:45;6.35;;;3.88;;
50056;SDS011;36875;49.468;11.200;2023-07-24T04:33:11;7.68;;;4.07;;
50056;SDS011;36875;49.468;11.200;2023-07-24T04:35:38;6.40;;;3.75;;
50056;SDS011;36875;49.468;11.200;2023-07-24T04:38:03;6.80;;;3.97;;
50056;SDS011;36875;49.468;11.200;2023-07-24T04:40:29;6.53;;;3.90;;
50056;SDS011;36875;49.468;11.200;2023-07-24T04:42:54;6.70;;;3.63;;
50056;SDS011;36875;49.468;11.200;2023-07-24T04:45:20;5.30;;;3.35;;
50056;SDS011;36875;49.468;11.200;2023-07-24T04:47:45;6.75;;;4.00;;
50056;SDS011;36875;49.468;11.200;2023-07-24T04:50:11;6.45;;;3.88;;
50056;SDS011;36875;49.468;11.200;2023-07-24T04:52:38;6.85;;;4.15;;
50056;SDS011;36875;49.468;11.200;2023-07-24T04:55:03;6.75;;;4.32;;
50056;SDS011;36875;49.468;11.200;2023-07-24T04:57:30;7.10;;;4.53;;
50056;SDS011;36875;49.468;11.200;2023-07-24T04:59:55;7.97;;;4.53;;
50056;SDS011;36875;49.468;11.200;2023-07-24T05:02:21;5.97;;;4.00;;
50056;SDS011;36875;49.468;11.200;2023-07-24T05:04:47;8.30;;;4.57;;
50056;SDS011;36875;49.468;11.200;2023-07-24T05:07:12;7.55;;;4.55;;
50056;SDS011;36875;49.468;11.200;2023-07-24T05:09:39;7.28;;;4.30;;
50056;SDS011;36875;49.468;11.200;2023-07-24T05:12:05;8.63;;;4.30;;
50056;SDS011;36875;49.468;11.200;2023-07-24T05:14:31;7.88;;;4.78;;
50056;SDS011;36875;49.468;11.200;2023-07-24T05:16:57;8.77;;;4.65;;
50056;SDS011;36875;49.468;11.200;2023-07-24T05:19:22;8.00;;;4.40;;
50056;SDS011;36875;49.468;11.200;2023-07-24T05:21:48;6.60;;;3.90;;
50056;SDS011;36875;49.468;11.200;2023-07-24T05:24:13;7.43;;;4.38;;
50056;SDS011;36875;49.468;11.200;2023-07-24T05:26:40;10.90;;;5.25;;
50056;SDS011;36875;49.468;11.200;2023-07-24T05:29:06;9.00;;;5.35;;
50056;SDS011;36875;49.468;11.200;2023-07-24T05:31:31;10.27;;;5.80;;
50056;SDS011;36875;49.468;11.200;2023-07-24T05:33:59;12.77;;;6.55;;
50056;SDS011;36875;49.468;11.200;2023-07-24T05:36:24;12.63;;;6.93;;
50056;SDS011;36875;49.468;11.200;2023-07-24T05:38:51;13.77;;;6.93;;
50056;SDS011;36875;49.468;11.200;2023-07-24T05:41:16;12.85;;;6.95;;
50056;SDS011;36875;49.468;11.200;2023-07-24T05:43:43;10.60;;;6.40;;
50056;SDS011;36875;49.468;11.200;2023-07-24T05:46:09;12.30;;;6.35;;
50056;SDS011;36875;49.468;11.200;2023-07-24T05:48:34;12.00;;;6.65;;
50056;SDS011;36875;49.468;11.200;2023-07-24T05:50:59;9.95;;;6.45;;
50056;SDS011;36875;49.468;11.200;2023-07-24T05:53:25;12.85;;;6.28;;
50056;SDS011;36875;49.468;11.200;2023-07-24T05:55:56;11.13;;;6.28;;
50056;SDS011;36875;49.468;11.200;2023-07-24T05:58:23;12.68;;;5.75;;
50056;SDS011;36875;49.468;11.200;2023-07-24T06:00:49;20.10;;;6.30;;
50056;SDS011;36875;49.468;11.200;2023-07-24T06:03:15;10.00;;;6.05;;
50056;SDS011;36875;49.468;11.200;2023-07-24T06:05:40;10.05;;;5.63;;
50056;SDS011;36875;49.468;11.200;2023-07-24T06:08:06;13.73;;;6.18;;
50056;SDS011;36875;49.468;11.200;2023-07-24T06:10:33;11.20;;;6.40;;
50056;SDS011;36875;49.468;11.200;2023-07-24T06:12:59;9.50;;;5.50;;
50056;SDS011;36875;49.468;11.200;2023-07-24T06:15:24;12.98;;;6.45;;
50056;SDS011;36875;49.468;11.200;2023-07-24T06:17:51;17.20;;;6.60;;
50056;SDS011;36875;49.468;11.200;2023-07-24T06:20:17;13.80;;;6.22;;
50056;SDS011;36875;49.468;11.200;2023-07-24T06:22:42;13.13;;;6.05;;
50056;SDS011;36875;49.468;11.200;2023-07-24T06:25:08;14.23;;;6.63;;
50056;SDS011;36875;49.468;11.200;2023-07-24T06:27:33;16.02;;;6.55;;
50056;SDS011;36875;49.468;11.200;2023-07-24T06:29:59;14.75;;;6.28;;
50056;SDS011;36875;49.468;11.200;2023-07-24T06:32:24;17.77;;;6.65;;
50056;SDS011;36875;49.468;11.200;2023-07-24T06:34:51;13.35;;;6.40;;
50056;SDS011;36875;49.468;11.200;2023-07-24T06:37:17;12.10;;;6.18;;
50056;SDS011;36875;49.468;11.200;2023-07-24T06:39:42;12.82;;;6.50;;
50056;SDS011;36875;49.468;11.200;2023-07-24T06:42:08;12.70;;;6.65;;
50056;SDS011;36875;49.468;11.200;2023-07-24T06:44:34;13.18;;;6.15;;
50056;SDS011;36875;49.468;11.200;2023-07-24T06:46:59;12.63;;;6.43;;
50056;SDS011;36875;49.468;11.200;2023-07-24T06:49:25;14.52;;;6.60;;
50056;SDS011;36875;49.468;11.200;2023-07-24T06:51:52;13.75;;;6.70;;
50056;SDS011;36875;49.468;11.200;2023-07-24T06:54:17;12.07;;;6.50;;
50056;SDS011;36875;49.468;11.200;2023-07-24T06:56:44;11.98;;;6.43;;
50056;SDS011;36875;49.468;11.200;2023-07-24T06:59:09;10.32;;;6.32;;
50056;SDS011;36875;49.468;11.200;2023-07-24T07:01:35;12.70;;;6.22;;
50056;SDS011;36875;49.468;11.200;2023-07-24T07:04:00;14.32;;;6.07;;
50056;SDS011;36875;49.468;11.200;2023-07-24T07:06:26;12.45;;;6.05;;
50056;SDS011;36875;49.468;11.200;2023-07-24T07:08:53;13.65;;;6.40;;
50056;SDS011;36875;49.468;11.200;2023-07-24T07:11:18;11.57;;;6.00;;
50056;SDS011;36875;49.468;11.200;2023-07-24T07:13:44;13.23;;;6.13;;
50056;SDS011;36875;49.468;11.200;2023-07-24T07:16:09;11.65;;;5.88;;
50056;SDS011;36875;49.468;11.200;2023-07-24T07:18:35;13.48;;;5.68;;
50056;SDS011;36875;49.468;11.200;2023-07-24T07:21:00;13.02;;;6.30;;
50056;SDS011;36875;49.468;11.200;2023-07-24T07:23:26;17.02;;;6.80;;
50056;SDS011;36875;49.468;11.200;2023-07-24T07:25:52;12.82;;;6.38;;
50056;SDS011;36875;49.468;11.200;2023-07-24T07:28:18;12.25;;;5.88;;
50056;SDS011;36875;49.468;11.200;2023-07-24T07:30:44;12.57;;;6.28;;
50056;SDS011;36875;49.468;11.200;2023-07-24T07:33:09;12.15;;;6.40;;
50056;SDS011;36875;49.468;11.200;2023-07-24T07:35:35;12.27;;;5.85;;
50056;SDS011;36875;49.468;11.200;2023-07-24T07:38:02;11.02;;;5.78;;
50056;SDS011;36875;49.468;11.200;2023-07-24T07:40:28;15.63;;;5.88;;
50056;SDS011;36875;49.468;11.200;2023-07-24T07:42:55;12.00;;;6.55;;
50056;SDS011;36875;49.468;11.200;2023-07-24T07:45:21;12.18;;;6.18;;
50056;SDS011;36875;49.468;11.200;2023-07-24T07:47:47;13.43;;;6.13;;
50056;SDS011;36875;49.468;11.200;2023-07-24T07:50:12;9.80;;;5.75;;
50056;SDS011;36875;49.468;11.200;2023-07-24T07:52:38;11.13;;;6.07;;
50056;SDS011;36875;49.468;11.200;2023-07-24T07:55:04;13.55;;;6.63;;
50056;SDS011;36875;49.468;11.200;2023-07-24T07:57:34;13.02;;;5.63;;
50056;SDS011;36875;49.468;11.200;2023-07-24T08:00:01;11.10;;;6.15;;
50056;SDS011;36875;49.468;11.200;2023-07-24T08:02:26;9.95;;;5.75;;
50056;SDS011;36875;49.468;11.200;2023-07-24T08:04:52;13.23;;;6.72;;
50056;SDS011;36875;49.468;11.200;2023-07-24T08:07:17;11.32;;;5.30;;
50056;SDS011;36875;49.468;11.200;2023-07-24T08:09:43;12.43;;;7.18;;
50056;SDS011;36875;49.468;11.200;2023-07-24T08:12:11;11.73;;;6.07;;
50056;SDS011;36875;49.468;11.200;2023-07-24T08:14:36;12.07;;;6.05;;
50056;SDS011;36875;49.468;11.200;2023-07-24T08:17:03;12.57;;;6.40;;
50056;SDS011;36875;49.468;11.200;2023-07-24T08:19:29;12.13;;;5.97;;
50056;SDS011;36875;49.468;11.200;2023-07-24T08:21:55;12.05;;;5.68;;
50056;SDS011;36875;49.468;11.200;2023-07-24T08:24:20;11.70;;;6.25;;
50056;SDS011;36875;49.468;11.200;2023-07-24T08:26:46;11.48;;;6.25;;
50056;SDS011;36875;49.468;11.200;2023-07-24T08:29:14;11.00;;;5.97;;
50056;SDS011;36875;49.468;11.200;2023-07-24T08:31:39;14.25;;;6.38;;
50056;SDS011;36875;49.468;11.200;2023-07-24T08:34:06;11.07;;;5.93;;
50056;SDS011;36875;49.468;11.200;2023-07-24T08:36:32;9.85;;;5.57;;
50056;SDS011;36875;49.468;11.200;2023-07-24T08:38:57;12.73;;;6.65;;
50056;SDS011;36875;49.468;11.200;2023-07-24T08:41:23;10.73;;;5.70;;
50056;SDS011;36875;49.468;11.200;2023-07-24T08:43:48;10.93;;;6.18;;
50056;SDS011;36875;49.468;11.200;2023-07-24T08:46:17;10.75;;;5.95;;
50056;SDS011;36875;49.468;11.200;2023-07-24T08:48:43;10.50;;;5.93;;
50056;SDS011;36875;49.468;11.200;2023-07-24T08:51:11;10.18;;;5.63;;
50056;SDS011;36875;49.468;11.200;2023-07-24T08:53:38;11.63;;;5.75;;
50056;SDS011;36875;49.468;11.200;2023-07-24T08:56:05;12.13;;;6.43;;
50056;SDS011;36875;49.468;11.200;2023-07-24T08:58:32;11.32;;;5.60;;
50056;SDS011;36875;49.468;11.200;2023-07-24T09:01:00;9.30;;;5.47;;
50056;SDS011;36875;49.468;11.200;2023-07-24T09:03:26;10.00;;;5.88;;
50056;SDS011;36875;49.468;11.200;2023-07-24T09:05:53;11.82;;;5.85;;
50056;SDS011;36875;49.468;11.200;2023-07-24T09:08:29;10.82;;;5.90;;
50056;SDS011;36875;49.468;11.200;2023-07-24T09:10:56;10.32;;;5.63;;
50056;SDS011;36875;49.468;11.200;2023-07-24T09:13:21;11.40;;;5.80;;
50056;SDS011;36875;49.468;11.200;2023-07-24T09:15:48;10.45;;;5.45;;
50056;SDS011;36875;49.468;11.200;2023-07-24T09:18:14;11.75;;;5.85;;
50056;SDS011;36875;49.468;11.200;2023-07-24T09:20:41;11.05;;;5.00;;
50056;SDS011;36875;49.468;11.200;2023-07-24T09:23:08;11.35;;;5.90;;
50056;SDS011;36875;49.468;11.200;2023-07-24T09:25:38;8.90;;;5.50;;
50056;SDS011;36875;49.468;11.200;2023-07-24T09:28:08;10.68;;;5.65;;
50056;SDS011;36875;49.468;11.200;2023-07-24T09:30:35;9.77;;;5.25;;
50056;SDS011;36875;49.468;11.200;2023-07-24T09:33:00;9.25;;;5.30;;
50056;SDS011;36875;49.468;11.200;2023-07-24T09:35:26;8.10;;;5.07;;
50056;SDS011;36875;49.468;11.200;2023-07-24T09:38:01;11.25;;;5.40;;
50056;SDS011;36875;49.468;11.200;2023-07-24T09:40:27;11.90;;;6.43;;
50056;SDS011;36875;49.468;11.200;2023-07-24T09:42:54;10.25;;;5.75;;
50056;SDS011;36875;49.468;11.200;2023-07-24T09:45:19;9.38;;;5.32;;
50056;SDS011;36875;49.468;11.200;2023-07-24T09:47:45;13.57;;;5.30;;
50056;SDS011;36875;49.468;11.200;2023-07-24T09:50:13;10.20;;;5.38;;
50056;SDS011;36875;49.468;11.200;2023-07-24T09:52:39;11.38;;;5.63;;
50056;SDS011;36875;49.468;11.200;2023-07-24T09:55:08;8.98;;;4.82;;
50056;SDS011;36875;49.468;11.200;2023-07-24T09:57:36;10.88;;;5.65;;
50056;SDS011;36875;49.468;11.200;2023-07-24T10:00:04;11.43;;;5.28;;
50056;SDS011;36875;49.468;11.200;2023-07-24T10:02:32;9.52;;;5.18;;
50056;SDS011;36875;49.468;11.200;2023-07-24T10:04:58;13.10;;;5.90;;
50056;SDS011;36875;49.468;11.200;2023-07-24T10:07:24;9.05;;;4.85;;
50056;SDS011;36875;49.468;11.200;2023-07-24T10:09:50;9.80;;;5.25;;
50056;SDS011;36875;49.468;11.200;2023-07-24T10:12:17;10.30;;;5.00;;
50056;SDS011;36875;49.468;11.200;2023-07-24T10:14:44;9.38;;;4.82;;
50056;SDS011;36875;49.468;11.200;2023-07-24T10:17:12;9.55;;;5.40;;
50056;SDS011;36875;49.468;11.200;2023-07-24T10:19:39;10.43;;;5.22;;
50056;SDS011;36875;49.468;11.200;2023-07-24T10:22:04;9.40;;;5.13;;
50056;SDS011;36875;49.468;11.200;2023-07-24T10:24:30;9.48;;;5.35;;
50056;SDS011;36875;49.468;11.200;2023-07-24T10:26:57;11.35;;;5.90;;
50056;SDS011;36875;49.468;11.200;2023-07-24T10:29:23;11.13;;;5.70;;
50056;SDS011;36875;49.468;11.200;2023-07-24T10:31:52;10.27;;;5.47;;
50056;SDS011;36875;49.468;11.200;2023-07-24T10:34:19;9.18;;;5.47;;
50056;SDS011;36875;49.468;11.200;2023-07-24T10:36:45;9.07;;;5.72;;
50056;SDS011;36875;49.468;11.200;2023-07-24T10:39:13;9.05;;;5.72;;
50056;SDS011;36875;49.468;11.200;2023-07-24T10:41:40;9.10;;;5.88;;
50056;SDS011;36875;49.468;11.200;2023-07-24T10:44:05;9.95;;;5.45;;
50056;SDS011;36875;49.468;11.200;2023-07-24T10:46:35;10.02;;;5.70;;
50056;SDS011;36875;49.468;11.200;2023-07-24T10:49:02;9.68;;;5.68;;
50056;SDS011;36875;49.468;11.200;2023-07-24T10:51:30;8.55;;;5.40;;
50056;SDS011;36875;49.468;11.200;2023-07-24T10:53:59;10.40;;;5.50;;
50056;SDS011;36875;49.468;11.200;2023-07-24T10:56:26;10.43;;;5.50;;
50056;SDS011;36875;49.468;11.200;2023-07-24T10:58:52;12.18;;;5.88;;
50056;SDS011;36875;49.468;11.200;2023-07-24T11:01:18;9.68;;;5.18;;
50056;SDS011;36875;49.468;11.200;2023-07-24T11:03:43;11.65;;;5.80;;
50056;SDS011;36875;49.468;11.200;2023-07-24T11:06:13;10.65;;;6.07;;
50056;SDS011;36875;49.468;11.200;2023-07-24T11:08:42;9.63;;;5.88;;
50056;SDS011;36875;49.468;11.200;2023-07-24T11:11:08;10.50;;;6.10;;
50056;SDS011;36875;49.468;11.200;2023-07-24T11:13:33;12.02;;;6.38;;
50056;SDS011;36875;49.468;11.200;2023-07-24T11:16:03;12.93;;;6.93;;
50056;SDS011;36875;49.468;11.200;2023-07-24T11:20:55;14.30;;;6.22;;
50056;SDS011;36875;49.468;11.200;2023-07-24T11:23:21;14.45;;;6.10;;
50056;SDS011;36875;49.468;11.200;2023-07-24T11:25:50;10.90;;;6.22;;
50056;SDS011;36875;49.468;11.200;2023-07-24T11:28:17;9.20;;;6.40;;
50056;SDS011;36875;49.468;11.200;2023-07-24T11:30:42;10.02;;;6.20;;
50056;SDS011;36875;49.468;11.200;2023-07-24T11:33:09;9.27;;;5.88;;
50056;SDS011;36875;49.468;11.200;2023-07-24T11:35:35;13.77;;;6.60;;
50056;SDS011;36875;49.468;11.200;2023-07-24T11:38:03;11.23;;;6.80;;
50056;SDS011;36875;49.468;11.200;2023-07-24T11:40:31;10.02;;;6.30;;
50056;SDS011;36875;49.468;11.200;2023-07-24T11:43:00;12.98;;;7.28;;
50056;SDS011;36875;49.468;11.200;2023-07-24T11:45:27;12.18;;;6.53;;
50056;SDS011;36875;49.468;11.200;2023-07-24T11:47:53;10.80;;;6.53;;
50056;SDS011;36875;49.468;11.200;2023-07-24T11:50:19;11.00;;;5.93;;
50056;SDS011;36875;49.468;11.200;2023-07-24T11:52:46;12.43;;;6.43;;
50056;SDS011;36875;49.468;11.200;2023-07-24T11:55:13;12.75;;;6.60;;
50056;SDS011;36875;49.468;11.200;2023-07-24T11:57:39;10.20;;;6.30;;
50056;SDS011;36875;49.468;11.200;2023-07-24T12:00:18;11.90;;;6.93;;
50056;SDS011;36875;49.468;11.200;2023-07-24T12:02:45;11.45;;;6.93;;
50056;SDS011;36875;49.468;11.200;2023-07-24T12:05:10;11.07;;;6.75;;
50056;SDS011;36875;49.468;11.200;2023-07-24T12:07:36;10.43;;;6.90;;
50056;SDS011;36875;49.468;11.200;2023-07-24T12:10:02;11.95;;;7.43;;
50056;SDS011;36875;49.468;11.200;2023-07-24T12:12:38;11.43;;;6.43;;
50056;SDS011;36875;49.468;11.200;2023-07-24T12:15:07;11.45;;;6.18;;
50056;SDS011;36875;49.468;11.200;2023-07-24T12:17:33;12.15;;;6.30;;
50056;SDS011;36875;49.468;11.200;2023-07-24T12:19:58;11.90;;;6.47;;
50056;SDS011;36875;49.468;11.200;2023-07-24T12:22:24;11.15;;;6.75;;
50056;SDS011;36875;49.468;11.200;2023-07-24T12:24:49;11.23;;;6.15;;
50056;SDS011;36875;49.468;11.200;2023-07-24T12:27:15;11.15;;;6.47;;
50056;SDS011;36875;49.468;11.200;2023-07-24T12:29:40;9.95;;;5.97;;
50056;SDS011;36875;49.468;11.200;2023-07-24T12:32:07;12.77;;;6.45;;
50056;SDS011;36875;49.468;11.200;2023-07-24T12:34:33;10.35;;;5.85;;
50056;SDS011;36875;49.468;11.200;2023-07-24T12:36:58;10.27;;;6.40;;
50056;SDS011;36875;49.468;11.200;2023-07-24T12:39:24;9.52;;;6.53;;
50056;SDS011;36875;49.468;11.200;2023-07-24T12:41:49;13.98;;;5.90;;
50056;SDS011;36875;49.468;11.200;2023-07-24T12:44:15;11.13;;;6.03;;
50056;SDS011;36875;49.468;11.200;2023-07-24T12:46:40;11.75;;;5.90;;
50056;SDS011;36875;49.468;11.200;2023-07-24T12:49:07;12.50;;;6.35;;
50056;SDS011;36875;49.468;11.200;2023-07-24T12:51:33;10.45;;;5.85;;
50056;SDS011;36875;49.468;11.200;2023-07-24T12:53:58;13.10;;;6.60;;
50056;SDS011;36875;49.468;11.200;2023-07-24T12:56:24;13.23;;;5.90;;
50056;SDS011;36875;49.468;11.200;2023-07-24T12:58:49;15.05;;;6.10;;
50056;SDS011;36875;49.468;11.200;2023-07-24T13:01:15;12.10;;;6.63;;
50056;SDS011;36875;49.468;11.200;2023-07-24T13:03:40;9.70;;;5.53;;
50056;SDS011;36875;49.468;11.200;2023-07-24T13:06:07;10.45;;;5.47;;
50056;SDS011;36875;49.468;11.200;2023-07-24T13:08:32;9.90;;;5.43;;
50056;SDS011;36875;49.468;11.200;2023-07-24T13:10:58;11.15;;;6.00;;
50056;SDS011;36875;49.468;11.200;2023-07-24T13:13:23;10.07;;;6.15;;
50056;SDS011;36875;49.468;11.200;2023-07-24T13:15:49;13.18;;;6.53;;
50056;SDS011;36875;49.468;11.200;2023-07-24T13:18:16;11.07;;;5.93;;
50056;SDS011;36875;49.468;11.200;2023-07-24T13:20:42;11.82;;;5.43;;
50056;SDS011;36875;49.468;11.200;2023-07-24T13:23:09;10.77;;;5.57;;
50056;SDS011;36875;49.468;11.200;2023-07-24T13:25:34;10.25;;;5.28;;
50056;SDS011;36875;49.468;11.200;2023-07-24T13:28:00;8.82;;;5.60;;
50056;SDS011;36875;49.468;11.200;2023-07-24T13:30:25;11.57;;;5.78;;
50056;SDS011;36875;49.468;11.200;2023-07-24T13:32:51;8.68;;;4.82;;
50056;SDS011;36875;49.468;11.200;2023-07-24T13:35:16;10.43;;;5.22;;
50056;SDS011;36875;49.468;11.200;2023-07-24T13:37:42;12.30;;;5.63;;
50056;SDS011;36875;49.468;11.200;2023-07-24T13:40:09;10.50;;;5.53;;
50056;SDS011;36875;49.468;11.200;2023-07-24T13:42:35;10.30;;;5.95;;
50056;SDS011;36875;49.468;11.200;2023-07-24T13:45:01;9.70;;;5.28;;
50056;SDS011;36875;49.468;11.200;2023-07-24T13:47:26;12.20;;;5.47;;
50056;SDS011;36875;49.468;11.200;2023-07-24T13:49:52;8.98;;;5.50;;
50056;SDS011;36875;49.468;11.200;2023-07-24T13:52:17;11.85;;;5.50;;
50056;SDS011;36875;49.468;11.200;2023-07-24T13:54:43;11.23;;;5.95;;
50056;SDS011;36875;49.468;11.200;2023-07-24T13:57:09;9.73;;;5.15;;
50056;SDS011;36875;49.468;11.200;2023-07-24T13:59:35;9.93;;;4.88;;
50056;SDS011;36875;49.468;11.200;2023-07-24T14:02:03;10.48;;;5.50;;
50056;SDS011;36875;49.468;11.200;2023-07-24T14:04:29;9.95;;;5.40;;
50056;SDS011;36875;49.468;11.200;2023-07-24T14:06:54;9.40;;;4.90;;
50056;SDS011;36875;49.468;11.200;2023-07-24T14:09:20;9.35;;;5.07;;
50056;SDS011;36875;49.468;11.200;2023-07-24T14:11:45;9.98;;;5.75;;
50056;SDS011;36875;49.468;11.200;2023-07-24T14:14:12;9.38;;;5.00;;
50056;SDS011;36875;49.468;11.200;2023-07-24T14:16:38;9.77;;;5.10;;
50056;SDS011;36875;49.468;11.200;2023-07-24T14:19:03;9.13;;;5.43;;
50056;SDS011;36875;49.468;11.200;2023-07-24T14:21:29;11.02;;;4.97;;
50056;SDS011;36875;49.468;11.200;2023-07-24T14:23:54;14.63;;;5.28;;
50056;SDS011;36875;49.468;11.200;2023-07-24T14:26:20;11.38;;;5.30;;